Location:
 IT 
 EN 
 FR 
 DE 
 ES 

Current weather

Datameteo.com Informazioni Meteo attuali
Milano / Linate, Italy
Alba: 6:56 AM UTC1
Tramonto: 6:12 PM UTC1
 Lat: 45.42N, Lon: 9.27E
ICAO Used: LIML
Realzeit wetter, Realtime weather, Metèo en temps reel, Dato en tiempo real, Akt, Upd,Mis a j, Act
Update: 0920 AM UTC+0 DOM MAR 03 2024
Coperto
Temp: 11°C
Feuchte/Humidity/Humiditè/Humedad': 76%
Wind-Wind-Vent-Viento: ESE 16 KTS /
Pressione-Pressure-Pression-Presìon: 1006 hPa
Tautemperatur-Dew Point-P. de Rosèe-Temp rocìo: 7°C
Wärmindex-Feels like-Index de Chaleur-Indice Calor: 10°C
Sicht-Visibility-Visibilitè-Visibilidad: >10 KM (very good)
Wind Chill-Refroidissement eolien-Indice Calor Viento (Wind Chill): 7°C
Ho"chs,High,Max 14 hr: 11°C
Mindes,Low,Min 24 hr: 10°C


ORIGINAL METAR
LIML 030920Z 11016KT 9999 SCT070 SCT080 11/07 Q1006 NOSIG




Elaborazione dati by Datameteo.com - Lrc Servizi srl Copyright ©, All rights reserved.
View the web version
©2010 Datameteo.com
weather mobile,mobile weather,meteo mobile,mobile meteo,meteo sul telefonino datameteo.com